sensor_id;sensor_type;location;lat;lon;timestamp;P1;durP1;ratioP1;P2;durP2;ratioP2
70126;SDS011;57491;42.694;23.314;2023-10-19T00:01:54;20.20;;;12.95;;
70126;SDS011;57491;42.694;23.314;2023-10-19T00:04:21;21.63;;;12.90;;
70126;SDS011;57491;42.694;23.314;2023-10-19T00:06:47;23.42;;;13.98;;
70126;SDS011;57491;42.694;23.314;2023-10-19T00:09:15;20.88;;;12.98;;
70126;SDS011;57491;42.694;23.314;2023-10-19T00:11:41;25.75;;;13.85;;
70126;SDS011;57491;42.694;23.314;2023-10-19T00:14:09;23.05;;;12.75;;
70126;SDS011;57491;42.694;23.314;2023-10-19T00:16:43;20.08;;;13.25;;
70126;SDS011;57491;42.694;23.314;2023-10-19T00:19:16;23.30;;;13.13;;
70126;SDS011;57491;42.694;23.314;2023-10-19T00:21:45;24.15;;;12.80;;
70126;SDS011;57491;42.694;23.314;2023-10-19T00:24:20;17.92;;;11.82;;
70126;SDS011;57491;42.694;23.314;2023-10-19T00:26:48;22.95;;;12.00;;
70126;SDS011;57491;42.694;23.314;2023-10-19T00:29:19;18.98;;;12.82;;
70126;SDS011;57491;42.694;23.314;2023-10-19T00:34:28;25.83;;;14.75;;
70126;SDS011;57491;42.694;23.314;2023-10-19T00:36:56;18.77;;;12.68;;
70126;SDS011;57491;42.694;23.314;2023-10-19T00:39:27;22.35;;;13.27;;
70126;SDS011;57491;42.694;23.314;2023-10-19T00:42:05;18.85;;;11.82;;
70126;SDS011;57491;42.694;23.314;2023-10-19T00:44:32;21.40;;;14.43;;
70126;SDS011;57491;42.694;23.314;2023-10-19T00:47:08;19.92;;;13.07;;
70126;SDS011;57491;42.694;23.314;2023-10-19T00:49:38;18.40;;;12.75;;
70126;SDS011;57491;42.694;23.314;2023-10-19T00:52:07;23.52;;;12.85;;
70126;SDS011;57491;42.694;23.314;2023-10-19T00:54:38;17.75;;;12.27;;
70126;SDS011;57491;42.694;23.314;2023-10-19T00:57:16;24.30;;;12.55;;
70126;SDS011;57491;42.694;23.314;2023-10-19T00:59:48;20.73;;;11.70;;
70126;SDS011;57491;42.694;23.314;2023-10-19T01:02:20;18.52;;;10.93;;
70126;SDS011;57491;42.694;23.314;2023-10-19T01:04:54;18.48;;;11.88;;
70126;SDS011;57491;42.694;23.314;2023-10-19T01:07:25;19.85;;;12.38;;
70126;SDS011;57491;42.694;23.314;2023-10-19T01:09:54;21.85;;;12.85;;
70126;SDS011;57491;42.694;23.314;2023-10-19T01:12:23;16.40;;;11.15;;
70126;SDS011;57491;42.694;23.314;2023-10-19T01:15:05;18.55;;;11.75;;
70126;SDS011;57491;42.694;23.314;2023-10-19T01:17:40;20.63;;;12.98;;
70126;SDS011;57491;42.694;23.314;2023-10-19T01:20:09;19.00;;;12.18;;
70126;SDS011;57491;42.694;23.314;2023-10-19T01:22:53;21.15;;;12.75;;
70126;SDS011;57491;42.694;23.314;2023-10-19T01:25:32;19.35;;;12.70;;
70126;SDS011;57491;42.694;23.314;2023-10-19T01:28:06;20.90;;;12.93;;
70126;SDS011;57491;42.694;23.314;2023-10-19T01:30:35;21.23;;;12.18;;
70126;SDS011;57491;42.694;23.314;2023-10-19T01:33:03;18.65;;;12.32;;
70126;SDS011;57491;42.694;23.314;2023-10-19T01:35:38;20.30;;;12.98;;
70126;SDS011;57491;42.694;23.314;2023-10-19T01:38:20;20.52;;;13.23;;
70126;SDS011;57491;42.694;23.314;2023-10-19T01:40:48;22.52;;;13.27;;
70126;SDS011;57491;42.694;23.314;2023-10-19T01:43:14;20.85;;;13.02;;
70126;SDS011;57491;42.694;23.314;2023-10-19T01:45:47;19.85;;;12.35;;
70126;SDS011;57491;42.694;23.314;2023-10-19T01:48:14;21.40;;;13.35;;
70126;SDS011;57491;42.694;23.314;2023-10-19T01:50:41;20.83;;;13.50;;
70126;SDS011;57491;42.694;23.314;2023-10-19T01:53:08;26.10;;;13.52;;
70126;SDS011;57491;42.694;23.314;2023-10-19T01:55:43;22.15;;;14.30;;
70126;SDS011;57491;42.694;23.314;2023-10-19T01:58:12;27.75;;;13.95;;
70126;SDS011;57491;42.694;23.314;2023-10-19T02:00:40;20.35;;;14.43;;
70126;SDS011;57491;42.694;23.314;2023-10-19T02:03:08;23.95;;;14.23;;
70126;SDS011;57491;42.694;23.314;2023-10-19T02:05:36;21.15;;;14.00;;
70126;SDS011;57491;42.694;23.314;2023-10-19T02:08:07;21.65;;;14.18;;
70126;SDS011;57491;42.694;23.314;2023-10-19T02:10:33;23.38;;;14.57;;
70126;SDS011;57491;42.694;23.314;2023-10-19T02:13:04;23.73;;;15.20;;
70126;SDS011;57491;42.694;23.314;2023-10-19T02:15:34;21.67;;;14.25;;
70126;SDS011;57491;42.694;23.314;2023-10-19T02:18:00;24.50;;;15.38;;
70126;SDS011;57491;42.694;23.314;2023-10-19T02:20:28;24.20;;;15.25;;
70126;SDS011;57491;42.694;23.314;2023-10-19T02:22:54;28.33;;;16.42;;
70126;SDS011;57491;42.694;23.314;2023-10-19T02:25:23;25.00;;;15.60;;
70126;SDS011;57491;42.694;23.314;2023-10-19T02:27:51;28.92;;;17.42;;
70126;SDS011;57491;42.694;23.314;2023-10-19T02:30:20;28.85;;;18.95;;
70126;SDS011;57491;42.694;23.314;2023-10-19T02:32:46;30.75;;;19.08;;
70126;SDS011;57491;42.694;23.314;2023-10-19T02:35:14;29.52;;;19.42;;
70126;SDS011;57491;42.694;23.314;2023-10-19T02:37:40;31.52;;;18.70;;
70126;SDS011;57491;42.694;23.314;2023-10-19T02:40:07;30.30;;;19.50;;
70126;SDS011;57491;42.694;23.314;2023-10-19T02:42:45;30.77;;;19.35;;
70126;SDS011;57491;42.694;23.314;2023-10-19T02:45:14;27.27;;;16.88;;
70126;SDS011;57491;42.694;23.314;2023-10-19T02:47:44;23.92;;;16.50;;
70126;SDS011;57491;42.694;23.314;2023-10-19T02:50:12;22.63;;;15.50;;
70126;SDS011;57491;42.694;23.314;2023-10-19T02:52:41;24.63;;;17.23;;
70126;SDS011;57491;42.694;23.314;2023-10-19T02:55:09;25.45;;;16.10;;
70126;SDS011;57491;42.694;23.314;2023-10-19T02:57:35;29.48;;;16.75;;
70126;SDS011;57491;42.694;23.314;2023-10-19T03:00:04;24.58;;;16.75;;
70126;SDS011;57491;42.694;23.314;2023-10-19T03:02:37;24.33;;;15.15;;
70126;SDS011;57491;42.694;23.314;2023-10-19T03:05:06;24.58;;;15.75;;
70126;SDS011;57491;42.694;23.314;2023-10-19T03:07:40;23.65;;;15.55;;
70126;SDS011;57491;42.694;23.314;2023-10-19T03:10:09;23.40;;;15.27;;
70126;SDS011;57491;42.694;23.314;2023-10-19T03:12:49;24.60;;;15.27;;
70126;SDS011;57491;42.694;23.314;2023-10-19T03:15:18;28.08;;;16.40;;
70126;SDS011;57491;42.694;23.314;2023-10-19T03:17:46;23.20;;;15.10;;
70126;SDS011;57491;42.694;23.314;2023-10-19T03:20:16;25.75;;;16.67;;
70126;SDS011;57491;42.694;23.314;2023-10-19T03:22:43;22.95;;;15.77;;
70126;SDS011;57491;42.694;23.314;2023-10-19T03:27:56;22.58;;;14.93;;
70126;SDS011;57491;42.694;23.314;2023-10-19T03:30:31;23.83;;;14.77;;
70126;SDS011;57491;42.694;23.314;2023-10-19T03:32:58;29.35;;;15.85;;
70126;SDS011;57491;42.694;23.314;2023-10-19T03:37:55;24.83;;;15.13;;
70126;SDS011;57491;42.694;23.314;2023-10-19T03:40:26;31.40;;;15.43;;
70126;SDS011;57491;42.694;23.314;2023-10-19T03:42:56;23.63;;;15.05;;
70126;SDS011;57491;42.694;23.314;2023-10-19T03:45:23;25.60;;;16.55;;
70126;SDS011;57491;42.694;23.314;2023-10-19T03:47:52;29.45;;;15.13;;
70126;SDS011;57491;42.694;23.314;2023-10-19T03:50:21;19.92;;;13.60;;
70126;SDS011;57491;42.694;23.314;2023-10-19T03:52:50;25.50;;;15.82;;
70126;SDS011;57491;42.694;23.314;2023-10-19T03:55:19;25.08;;;15.60;;
70126;SDS011;57491;42.694;23.314;2023-10-19T03:57:48;23.50;;;14.63;;
70126;SDS011;57491;42.694;23.314;2023-10-19T04:00:19;23.83;;;14.43;;
70126;SDS011;57491;42.694;23.314;2023-10-19T04:02:50;24.80;;;14.63;;
70126;SDS011;57491;42.694;23.314;2023-10-19T04:05:20;25.08;;;15.60;;
70126;SDS011;57491;42.694;23.314;2023-10-19T04:07:48;22.90;;;15.07;;
70126;SDS011;57491;42.694;23.314;2023-10-19T04:10:21;24.25;;;15.00;;
70126;SDS011;57491;42.694;23.314;2023-10-19T04:13:09;25.35;;;14.57;;
70126;SDS011;57491;42.694;23.314;2023-10-19T04:15:36;25.60;;;14.82;;
70126;SDS011;57491;42.694;23.314;2023-10-19T04:18:04;25.20;;;16.23;;
70126;SDS011;57491;42.694;23.314;2023-10-19T04:20:36;21.90;;;14.55;;
70126;SDS011;57491;42.694;23.314;2023-10-19T04:23:20;26.40;;;17.02;;
70126;SDS011;57491;42.694;23.314;2023-10-19T04:25:49;25.55;;;16.10;;
70126;SDS011;57491;42.694;23.314;2023-10-19T04:28:16;28.83;;;15.93;;
70126;SDS011;57491;42.694;23.314;2023-10-19T04:30:47;25.08;;;16.13;;
70126;SDS011;57491;42.694;23.314;2023-10-19T04:33:15;27.90;;;18.88;;
70126;SDS011;57491;42.694;23.314;2023-10-19T04:35:44;27.30;;;17.05;;
70126;SDS011;57491;42.694;23.314;2023-10-19T04:38:13;29.75;;;17.73;;
70126;SDS011;57491;42.694;23.314;2023-10-19T04:40:43;30.10;;;18.92;;
70126;SDS011;57491;42.694;23.314;2023-10-19T04:43:12;30.88;;;17.90;;
70126;SDS011;57491;42.694;23.314;2023-10-19T04:45:40;27.17;;;18.15;;
70126;SDS011;57491;42.694;23.314;2023-10-19T04:48:09;28.15;;;17.63;;
70126;SDS011;57491;42.694;23.314;2023-10-19T04:50:37;28.20;;;17.70;;
70126;SDS011;57491;42.694;23.314;2023-10-19T04:53:05;30.42;;;18.65;;
70126;SDS011;57491;42.694;23.314;2023-10-19T04:55:32;33.47;;;20.23;;
70126;SDS011;57491;42.694;23.314;2023-10-19T04:57:59;36.57;;;20.40;;
70126;SDS011;57491;42.694;23.314;2023-10-19T05:00:28;31.50;;;19.03;;
70126;SDS011;57491;42.694;23.314;2023-10-19T05:02:55;28.65;;;17.75;;
70126;SDS011;57491;42.694;23.314;2023-10-19T05:05:23;30.17;;;18.20;;
70126;SDS011;57491;42.694;23.314;2023-10-19T05:07:50;35.25;;;19.40;;
70126;SDS011;57491;42.694;23.314;2023-10-19T05:10:17;27.10;;;19.08;;
70126;SDS011;57491;42.694;23.314;2023-10-19T05:12:45;32.80;;;19.23;;
70126;SDS011;57491;42.694;23.314;2023-10-19T05:15:12;38.25;;;20.25;;
70126;SDS011;57491;42.694;23.314;2023-10-19T05:17:42;35.08;;;20.73;;
70126;SDS011;57491;42.694;23.314;2023-10-19T05:20:11;34.30;;;20.27;;
70126;SDS011;57491;42.694;23.314;2023-10-19T05:22:38;33.88;;;19.27;;
70126;SDS011;57491;42.694;23.314;2023-10-19T05:30:01;32.78;;;18.40;;
70126;SDS011;57491;42.694;23.314;2023-10-19T05:32:29;27.42;;;18.33;;
70126;SDS011;57491;42.694;23.314;2023-10-19T05:34:58;28.52;;;18.85;;
70126;SDS011;57491;42.694;23.314;2023-10-19T05:37:30;29.65;;;17.70;;
70126;SDS011;57491;42.694;23.314;2023-10-19T05:39:57;31.50;;;17.52;;
70126;SDS011;57491;42.694;23.314;2023-10-19T05:42:24;33.92;;;18.85;;
70126;SDS011;57491;42.694;23.314;2023-10-19T05:44:54;32.22;;;19.60;;
70126;SDS011;57491;42.694;23.314;2023-10-19T05:47:21;32.20;;;18.77;;
70126;SDS011;57491;42.694;23.314;2023-10-19T05:49:48;35.27;;;19.73;;
70126;SDS011;57491;42.694;23.314;2023-10-19T05:52:17;35.10;;;21.03;;
70126;SDS011;57491;42.694;23.314;2023-10-19T05:54:44;32.50;;;19.67;;
70126;SDS011;57491;42.694;23.314;2023-10-19T05:57:11;33.35;;;18.83;;
70126;SDS011;57491;42.694;23.314;2023-10-19T05:59:38;33.25;;;20.70;;
70126;SDS011;57491;42.694;23.314;2023-10-19T06:02:06;32.15;;;19.98;;
70126;SDS011;57491;42.694;23.314;2023-10-19T06:04:33;34.83;;;19.92;;
70126;SDS011;57491;42.694;23.314;2023-10-19T06:07:01;28.58;;;19.25;;
70126;SDS011;57491;42.694;23.314;2023-10-19T06:09:29;31.87;;;18.33;;
70126;SDS011;57491;42.694;23.314;2023-10-19T06:11:57;33.05;;;18.58;;
70126;SDS011;57491;42.694;23.314;2023-10-19T06:14:26;31.25;;;19.20;;
70126;SDS011;57491;42.694;23.314;2023-10-19T06:16:55;33.33;;;19.83;;
70126;SDS011;57491;42.694;23.314;2023-10-19T06:19:22;29.93;;;16.70;;
70126;SDS011;57491;42.694;23.314;2023-10-19T06:21:50;27.47;;;18.23;;
70126;SDS011;57491;42.694;23.314;2023-10-19T06:24:17;28.80;;;19.08;;
70126;SDS011;57491;42.694;23.314;2023-10-19T06:26:45;30.83;;;19.33;;
70126;SDS011;57491;42.694;23.314;2023-10-19T06:29:12;26.00;;;17.75;;
70126;SDS011;57491;42.694;23.314;2023-10-19T06:31:40;34.70;;;20.00;;
70126;SDS011;57491;42.694;23.314;2023-10-19T06:34:09;21.75;;;12.93;;
70126;SDS011;57491;42.694;23.314;2023-10-19T06:36:36;18.30;;;12.52;;
70126;SDS011;57491;42.694;23.314;2023-10-19T06:39:04;18.60;;;12.32;;
70126;SDS011;57491;42.694;23.314;2023-10-19T06:41:31;14.70;;;10.02;;
70126;SDS011;57491;42.694;23.314;2023-10-19T06:44:00;18.27;;;11.10;;
70126;SDS011;57491;42.694;23.314;2023-10-19T06:46:27;18.15;;;10.45;;
70126;SDS011;57491;42.694;23.314;2023-10-19T06:48:56;17.58;;;10.93;;
70126;SDS011;57491;42.694;23.314;2023-10-19T06:51:25;21.85;;;10.88;;
70126;SDS011;57491;42.694;23.314;2023-10-19T06:53:53;16.08;;;9.90;;
70126;SDS011;57491;42.694;23.314;2023-10-19T06:56:21;14.48;;;9.88;;
70126;SDS011;57491;42.694;23.314;2023-10-19T06:58:48;17.90;;;10.97;;
70126;SDS011;57491;42.694;23.314;2023-10-19T07:01:17;18.10;;;9.88;;
70126;SDS011;57491;42.694;23.314;2023-10-19T07:03:48;14.88;;;9.80;;
70126;SDS011;57491;42.694;23.314;2023-10-19T07:06:18;17.17;;;10.93;;
70126;SDS011;57491;42.694;23.314;2023-10-19T07:08:46;19.48;;;11.85;;
70126;SDS011;57491;42.694;23.314;2023-10-19T07:11:13;17.30;;;11.03;;
70126;SDS011;57491;42.694;23.314;2023-10-19T07:13:40;13.63;;;10.30;;
70126;SDS011;57491;42.694;23.314;2023-10-19T07:16:10;13.33;;;9.60;;
70126;SDS011;57491;42.694;23.314;2023-10-19T07:18:39;16.77;;;11.60;;
70126;SDS011;57491;42.694;23.314;2023-10-19T07:21:07;18.52;;;12.52;;
70126;SDS011;57491;42.694;23.314;2023-10-19T07:26:03;17.48;;;12.07;;
70126;SDS011;57491;42.694;23.314;2023-10-19T07:28:32;22.20;;;15.07;;
70126;SDS011;57491;42.694;23.314;2023-10-19T07:30:59;21.25;;;14.07;;
70126;SDS011;57491;42.694;23.314;2023-10-19T07:33:26;24.77;;;15.37;;
70126;SDS011;57491;42.694;23.314;2023-10-19T07:35:54;20.25;;;14.25;;
70126;SDS011;57491;42.694;23.314;2023-10-19T07:38:24;24.38;;;14.70;;
70126;SDS011;57491;42.694;23.314;2023-10-19T07:40:52;27.50;;;16.00;;
70126;SDS011;57491;42.694;23.314;2023-10-19T07:43:19;29.15;;;16.75;;
70126;SDS011;57491;42.694;23.314;2023-10-19T07:45:47;24.77;;;16.30;;
70126;SDS011;57491;42.694;23.314;2023-10-19T07:48:14;23.52;;;15.75;;
70126;SDS011;57491;42.694;23.314;2023-10-19T07:50:42;22.85;;;16.52;;
70126;SDS011;57491;42.694;23.314;2023-10-19T07:53:11;20.30;;;15.60;;
70126;SDS011;57491;42.694;23.314;2023-10-19T07:55:38;27.77;;;16.52;;
70126;SDS011;57491;42.694;23.314;2023-10-19T07:58:06;28.25;;;19.52;;
70126;SDS011;57491;42.694;23.314;2023-10-19T08:03:01;32.83;;;17.63;;
70126;SDS011;57491;42.694;23.314;2023-10-19T08:05:28;30.42;;;18.23;;
70126;SDS011;57491;42.694;23.314;2023-10-19T08:07:56;24.20;;;17.95;;
70126;SDS011;57491;42.694;23.314;2023-10-19T08:10:26;23.92;;;16.38;;
70126;SDS011;57491;42.694;23.314;2023-10-19T08:12:54;28.40;;;18.08;;
70126;SDS011;57491;42.694;23.314;2023-10-19T08:15:21;26.15;;;17.13;;
70126;SDS011;57491;42.694;23.314;2023-10-19T08:17:50;25.05;;;16.52;;
70126;SDS011;57491;42.694;23.314;2023-10-19T08:20:19;25.02;;;17.30;;
70126;SDS011;57491;42.694;23.314;2023-10-19T08:22:49;25.05;;;16.23;;
70126;SDS011;57491;42.694;23.314;2023-10-19T08:25:17;26.23;;;18.90;;
70126;SDS011;57491;42.694;23.314;2023-10-19T08:27:46;23.70;;;17.80;;
70126;SDS011;57491;42.694;23.314;2023-10-19T08:30:15;23.58;;;17.38;;
70126;SDS011;57491;42.694;23.314;2023-10-19T08:32:44;25.60;;;17.17;;
70126;SDS011;57491;42.694;23.314;2023-10-19T08:35:14;22.08;;;16.80;;
70126;SDS011;57491;42.694;23.314;2023-10-19T08:37:43;24.50;;;16.00;;
70126;SDS011;57491;42.694;23.314;2023-10-19T08:40:11;20.17;;;15.65;;
70126;SDS011;57491;42.694;23.314;2023-10-19T08:42:40;20.45;;;16.08;;
70126;SDS011;57491;42.694;23.314;2023-10-19T08:45:10;19.80;;;15.45;;
70126;SDS011;57491;42.694;23.314;2023-10-19T08:47:40;18.00;;;13.80;;
70126;SDS011;57491;42.694;23.314;2023-10-19T08:50:13;16.92;;;12.40;;
70126;SDS011;57491;42.694;23.314;2023-10-19T08:52:41;16.45;;;13.63;;
70126;SDS011;57491;42.694;23.314;2023-10-19T08:55:08;17.08;;;12.93;;
70126;SDS011;57491;42.694;23.314;2023-10-19T08:57:39;20.55;;;14.07;;
70126;SDS011;57491;42.694;23.314;2023-10-19T09:00:06;17.42;;;14.82;;
70126;SDS011;57491;42.694;23.314;2023-10-19T09:02:37;21.13;;;15.73;;
70126;SDS011;57491;42.694;23.314;2023-10-19T09:05:07;16.02;;;13.57;;
70126;SDS011;57491;42.694;23.314;2023-10-19T09:07:34;14.77;;;11.23;;
70126;SDS011;57491;42.694;23.314;2023-10-19T09:12:31;13.25;;;10.20;;
70126;SDS011;57491;42.694;23.314;2023-10-19T09:14:59;20.15;;;16.25;;
70126;SDS011;57491;42.694;23.314;2023-10-19T09:17:31;14.40;;;11.77;;
70126;SDS011;57491;42.694;23.314;2023-10-19T09:19:59;12.68;;;11.38;;
70126;SDS011;57491;42.694;23.314;2023-10-19T09:22:35;10.40;;;9.40;;
70126;SDS011;57491;42.694;23.314;2023-10-19T09:25:10;11.43;;;9.77;;
70126;SDS011;57491;42.694;23.314;2023-10-19T09:27:37;10.88;;;8.88;;
70126;SDS011;57491;42.694;23.314;2023-10-19T09:32:36;11.38;;;8.77;;
70126;SDS011;57491;42.694;23.314;2023-10-19T09:35:04;11.95;;;9.52;;
70126;SDS011;57491;42.694;23.314;2023-10-19T09:37:34;9.75;;;8.75;;
70126;SDS011;57491;42.694;23.314;2023-10-19T09:40:03;14.70;;;9.70;;
70126;SDS011;57491;42.694;23.314;2023-10-19T09:42:31;12.52;;;9.48;;
70126;SDS011;57491;42.694;23.314;2023-10-19T09:44:59;14.38;;;10.43;;
70126;SDS011;57491;42.694;23.314;2023-10-19T09:47:34;10.52;;;8.82;;
70126;SDS011;57491;42.694;23.314;2023-10-19T09:50:06;12.10;;;9.80;;
70126;SDS011;57491;42.694;23.314;2023-10-19T09:52:36;11.15;;;9.05;;
70126;SDS011;57491;42.694;23.314;2023-10-19T09:55:06;10.52;;;8.90;;
70126;SDS011;57491;42.694;23.314;2023-10-19T09:57:40;11.05;;;8.20;;
70126;SDS011;57491;42.694;23.314;2023-10-19T10:00:14;12.52;;;9.27;;
70126;SDS011;57491;42.694;23.314;2023-10-19T10:02:50;13.20;;;10.05;;
70126;SDS011;57491;42.694;23.314;2023-10-19T10:08:30;11.48;;;9.18;;
70126;SDS011;57491;42.694;23.314;2023-10-19T10:11:12;15.30;;;9.98;;
70126;SDS011;57491;42.694;23.314;2023-10-19T10:13:44;10.93;;;8.88;;
70126;SDS011;57491;42.694;23.314;2023-10-19T10:16:17;11.68;;;8.60;;
70126;SDS011;57491;42.694;23.314;2023-10-19T10:18:47;11.02;;;8.93;;
70126;SDS011;57491;42.694;23.314;2023-10-19T10:21:16;10.73;;;8.48;;
70126;SDS011;57491;42.694;23.314;2023-10-19T10:23:48;10.52;;;8.32;;
70126;SDS011;57491;42.694;23.314;2023-10-19T10:26:18;14.02;;;10.23;;
70126;SDS011;57491;42.694;23.314;2023-10-19T10:31:40;11.27;;;9.02;;
70126;SDS011;57491;42.694;23.314;2023-10-19T10:34:10;9.35;;;8.35;;
70126;SDS011;57491;42.694;23.314;2023-10-19T10:36:57;9.00;;;8.10;;
70126;SDS011;57491;42.694;23.314;2023-10-19T10:39:26;9.90;;;8.88;;
70126;SDS011;57491;42.694;23.314;2023-10-19T10:41:56;10.88;;;9.88;;
70126;SDS011;57491;42.694;23.314;2023-10-19T10:44:37;11.38;;;9.45;;
70126;SDS011;57491;42.694;23.314;2023-10-19T10:47:06;10.63;;;9.63;;
70126;SDS011;57491;42.694;23.314;2023-10-19T10:52:25;11.63;;;9.93;;
70126;SDS011;57491;42.694;23.314;2023-10-19T10:54:54;16.08;;;12.65;;
70126;SDS011;57491;42.694;23.314;2023-10-19T10:57:22;9.63;;;8.68;;
70126;SDS011;57491;42.694;23.314;2023-10-19T11:00:03;10.48;;;8.63;;
70126;SDS011;57491;42.694;23.314;2023-10-19T11:02:32;8.70;;;7.90;;
70126;SDS011;57491;42.694;23.314;2023-10-19T11:05:01;9.15;;;7.65;;
70126;SDS011;57491;42.694;23.314;2023-10-19T11:07:29;9.38;;;8.30;;
70126;SDS011;57491;42.694;23.314;2023-10-19T11:09:57;8.68;;;7.28;;
70126;SDS011;57491;42.694;23.314;2023-10-19T11:12:24;8.60;;;7.75;;
70126;SDS011;57491;42.694;23.314;2023-10-19T11:14:53;9.88;;;8.55;;
70126;SDS011;57491;42.694;23.314;2023-10-19T11:19:49;9.50;;;7.97;;
70126;SDS011;57491;42.694;23.314;2023-10-19T11:22:17;9.77;;;8.23;;
70126;SDS011;57491;42.694;23.314;2023-10-19T11:24:45;9.40;;;8.30;;
70126;SDS011;57491;42.694;23.314;2023-10-19T11:27:12;10.00;;;8.20;;
70126;SDS011;57491;42.694;23.314;2023-10-19T11:29:39;8.48;;;7.68;;
70126;SDS011;57491;42.694;23.314;2023-10-19T11:32:21;9.88;;;8.88;;
70126;SDS011;57491;42.694;23.314;2023-10-19T11:34:50;9.15;;;8.25;;
70126;SDS011;57491;42.694;23.314;2023-10-19T11:37:20;9.60;;;8.70;;
70126;SDS011;57491;42.694;23.314;2023-10-19T11:39:47;8.50;;;7.80;;
70126;SDS011;57491;42.694;23.314;2023-10-19T11:42:15;9.05;;;8.20;;
70126;SDS011;57491;42.694;23.314;2023-10-19T11:44:43;8.48;;;7.80;;
70126;SDS011;57491;42.694;23.314;2023-10-19T11:47:11;8.73;;;8.00;;
70126;SDS011;57491;42.694;23.314;2023-10-19T11:49:40;9.85;;;8.80;;
70126;SDS011;57491;42.694;23.314;2023-10-19T11:52:07;8.85;;;7.95;;
70126;SDS011;57491;42.694;23.314;2023-10-19T11:54:36;8.23;;;7.45;;
70126;SDS011;57491;42.694;23.314;2023-10-19T11:57:03;9.20;;;7.78;;
70126;SDS011;57491;42.694;23.314;2023-10-19T11:59:31;10.77;;;6.88;;
70126;SDS011;57491;42.694;23.314;2023-10-19T12:01:58;8.20;;;7.15;;
70126;SDS011;57491;42.694;23.314;2023-10-19T12:04:26;8.48;;;7.05;;
70126;SDS011;57491;42.694;23.314;2023-10-19T12:06:53;9.27;;;8.20;;
70126;SDS011;57491;42.694;23.314;2023-10-19T12:09:20;8.07;;;7.38;;
70126;SDS011;57491;42.694;23.314;2023-10-19T12:11:51;9.20;;;7.90;;
70126;SDS011;57491;42.694;23.314;2023-10-19T12:14:20;9.30;;;8.18;;
70126;SDS011;57491;42.694;23.314;2023-10-19T12:16:48;9.43;;;8.70;;
70126;SDS011;57491;42.694;23.314;2023-10-19T12:19:15;9.23;;;8.25;;
70126;SDS011;57491;42.694;23.314;2023-10-19T12:21:44;8.93;;;8.10;;
70126;SDS011;57491;42.694;23.314;2023-10-19T12:24:12;8.13;;;7.50;;
70126;SDS011;57491;42.694;23.314;2023-10-19T12:26:40;8.32;;;7.53;;
70126;SDS011;57491;42.694;23.314;2023-10-19T12:29:09;7.85;;;7.10;;
70126;SDS011;57491;42.694;23.314;2023-10-19T12:31:36;8.40;;;7.63;;
70126;SDS011;57491;42.694;23.314;2023-10-19T12:34:05;10.45;;;8.32;;
70126;SDS011;57491;42.694;23.314;2023-10-19T12:36:34;9.45;;;7.78;;
70126;SDS011;57491;42.694;23.314;2023-10-19T12:39:01;8.02;;;7.32;;
70126;SDS011;57491;42.694;23.314;2023-10-19T12:41:31;7.50;;;6.85;;
70126;SDS011;57491;42.694;23.314;2023-10-19T12:43:58;8.25;;;6.60;;
70126;SDS011;57491;42.694;23.314;2023-10-19T12:46:29;10.27;;;7.63;;
70126;SDS011;57491;42.694;23.314;2023-10-19T12:48:56;8.43;;;7.65;;
70126;SDS011;57491;42.694;23.314;2023-10-19T12:51:24;8.60;;;7.90;;
70126;SDS011;57491;42.694;23.314;2023-10-19T12:53:52;10.00;;;8.68;;
70126;SDS011;57491;42.694;23.314;2023-10-19T12:56:19;8.68;;;7.82;;
70126;SDS011;57491;42.694;23.314;2023-10-19T12:58:50;8.88;;;8.00;;
70126;SDS011;57491;42.694;23.314;2023-10-19T13:01:17;8.02;;;7.10;;
70126;SDS011;57491;42.694;23.314;2023-10-19T13:03:46;9.48;;;7.50;;
70126;SDS011;57491;42.694;23.314;2023-10-19T13:06:14;8.43;;;7.20;;
70126;SDS011;57491;42.694;23.314;2023-10-19T13:08:42;7.68;;;7.00;;
70126;SDS011;57491;42.694;23.314;2023-10-19T13:11:10;7.90;;;7.20;;
70126;SDS011;57491;42.694;23.314;2023-10-19T13:13:39;7.40;;;6.75;;
70126;SDS011;57491;42.694;23.314;2023-10-19T13:16:07;6.82;;;6.20;;
70126;SDS011;57491;42.694;23.314;2023-10-19T13:18:34;7.18;;;6.28;;
70126;SDS011;57491;42.694;23.314;2023-10-19T13:21:03;7.00;;;6.30;;
70126;SDS011;57491;42.694;23.314;2023-10-19T13:23:31;8.98;;;6.80;;
70126;SDS011;57491;42.694;23.314;2023-10-19T13:25:59;9.93;;;6.30;;
70126;SDS011;57491;42.694;23.314;2023-10-19T13:28:42;6.95;;;5.63;;
70126;SDS011;57491;42.694;23.314;2023-10-19T13:31:10;12.38;;;7.72;;
70126;SDS011;57491;42.694;23.314;2023-10-19T13:33:39;6.72;;;5.85;;
70126;SDS011;57491;42.694;23.314;2023-10-19T13:36:10;10.85;;;8.15;;
70126;SDS011;57491;42.694;23.314;2023-10-19T13:38:39;7.85;;;6.15;;
70126;SDS011;57491;42.694;23.314;2023-10-19T13:41:06;8.52;;;5.70;;
70126;SDS011;57491;42.694;23.314;2023-10-19T13:43:35;7.60;;;5.25;;
70126;SDS011;57491;42.694;23.314;2023-10-19T13:48:30;6.90;;;4.97;;
70126;SDS011;57491;42.694;23.314;2023-10-19T13:50:58;8.75;;;5.47;;
70126;SDS011;57491;42.694;23.314;2023-10-19T13:53:32;7.22;;;6.13;;
70126;SDS011;57491;42.694;23.314;2023-10-19T13:56:00;9.82;;;4.75;;
70126;SDS011;57491;42.694;23.314;2023-10-19T13:58:27;7.80;;;5.70;;
70126;SDS011;57491;42.694;23.314;2023-10-19T14:00:54;8.07;;;5.38;;
70126;SDS011;57491;42.694;23.314;2023-10-19T14:03:21;6.63;;;4.90;;
70126;SDS011;57491;42.694;23.314;2023-10-19T14:05:48;6.35;;;5.10;;
70126;SDS011;57491;42.694;23.314;2023-10-19T14:08:16;7.18;;;5.40;;
70126;SDS011;57491;42.694;23.314;2023-10-19T14:10:47;7.18;;;4.97;;
70126;SDS011;57491;42.694;23.314;2023-10-19T14:13:15;6.40;;;4.47;;
70126;SDS011;57491;42.694;23.314;2023-10-19T14:18:09;8.48;;;4.97;;
70126;SDS011;57491;42.694;23.314;2023-10-19T14:20:37;6.60;;;4.63;;
70126;SDS011;57491;42.694;23.314;2023-10-19T14:23:06;7.78;;;5.57;;
70126;SDS011;57491;42.694;23.314;2023-10-19T14:25:37;7.97;;;5.30;;
70126;SDS011;57491;42.694;23.314;2023-10-19T14:28:07;8.35;;;4.30;;
70126;SDS011;57491;42.694;23.314;2023-10-19T14:30:35;8.63;;;5.13;;
70126;SDS011;57491;42.694;23.314;2023-10-19T14:33:02;10.55;;;5.05;;
70126;SDS011;57491;42.694;23.314;2023-10-19T14:35:35;5.43;;;4.78;;
70126;SDS011;57491;42.694;23.314;2023-10-19T14:38:04;11.90;;;5.72;;
70126;SDS011;57491;42.694;23.314;2023-10-19T14:40:34;7.45;;;4.60;;
70126;SDS011;57491;42.694;23.314;2023-10-19T14:43:02;8.77;;;5.00;;
70126;SDS011;57491;42.694;23.314;2023-10-19T14:45:31;9.07;;;6.25;;
70126;SDS011;57491;42.694;23.314;2023-10-19T14:47:58;7.55;;;4.95;;
70126;SDS011;57491;42.694;23.314;2023-10-19T14:50:28;8.98;;;5.30;;
70126;SDS011;57491;42.694;23.314;2023-10-19T14:55:24;12.20;;;6.32;;
70126;SDS011;57491;42.694;23.314;2023-10-19T14:57:52;11.73;;;6.35;;
70126;SDS011;57491;42.694;23.314;2023-10-19T15:00:21;10.73;;;5.90;;
70126;SDS011;57491;42.694;23.314;2023-10-19T15:02:53;14.02;;;6.18;;
70126;SDS011;57491;42.694;23.314;2023-10-19T15:05:21;14.52;;;6.80;;
70126;SDS011;57491;42.694;23.314;2023-10-19T15:07:50;18.75;;;7.90;;
70126;SDS011;57491;42.694;23.314;2023-10-19T15:10:19;16.77;;;10.88;;